Time;durP1;ratioP1;P1;durP2;ratioP2;P2;SDS_P1;SDS_P2;PMS_P1;PMS_P2;Temp;Humidity;BMP_temperature;BMP_pressure;BME280_temperature;BME280_humidity;BME280_pressure;Samples;Min_cycle;Max_cycle;Signal;HPM_P1;HPM_P2
2023/10/04 00:08:49;;;;;;;4.97;1.40;;;;;;;12.06;64.51;101390.50;21085778;28;20575;-86
2023/10/04 00:18:54;;;;;;;4.10;1.40;;;;;;;12.01;64.20;101399.91;21058741;28;20311;-86
2023/10/04 00:28:56;;;;;;;3.57;1.30;;;;;;;11.99;65.83;101404.16;21081552;28;20199;-79
2023/10/04 00:38:59;;;;;;;4.20;1.00;;;;;;;11.90;65.61;101404.06;21086742;28;20283;-78
2023/10/04 00:49:02;;;;;;;2.20;0.93;;;;;;;11.96;66.11;101414.09;21080900;28;20302;-80
2023/10/04 00:59:06;;;;;;;7.33;1.50;;;;;;;11.80;66.86;101407.94;21065107;28;20322;-79
2023/10/04 01:09:08;;;;;;;5.50;1.90;;;;;;;12.17;65.36;101421.03;21065319;28;20191;-78
2023/10/04 01:19:14;;;;;;;3.00;1.30;;;;;;;12.03;66.66;101428.63;21068604;28;20228;-79
2023/10/04 01:29:18;;;;;;;6.50;1.20;;;;;;;12.15;65.48;101417.66;21073366;28;20631;-79
2023/10/04 01:39:20;;;;;;;5.50;1.63;;;;;;;11.92;65.84;101427.16;21068367;28;20222;-79
2023/10/04 01:49:24;;;;;;;4.77;1.53;;;;;;;11.71;66.73;101418.25;21076896;28;20232;-79
2023/10/04 01:59:26;;;;;;;5.77;0.90;;;;;;;12.10;66.72;101426.22;21058038;28;20309;-79
2023/10/04 02:09:29;;;;;;;7.67;1.30;;;;;;;11.43;67.98;101425.78;21045810;28;20217;-79
2023/10/04 02:19:32;;;;;;;6.90;1.30;;;;;;;11.90;66.50;101419.00;21068082;28;20310;-80
2023/10/04 02:29:38;;;;;;;5.33;1.57;;;;;;;12.19;65.73;101432.84;21066974;28;20293;-79
2023/10/04 02:39:40;;;;;;;2.73;1.03;;;;;;;12.12;65.35;101432.41;21069033;28;20226;-79
2023/10/04 02:49:43;;;;;;;4.75;1.85;;;;;;;11.60;67.95;101439.31;21092886;28;20300;-80
2023/10/04 02:59:44;;;;;;;3.03;1.57;;;;;;;11.70;67.39;101435.47;21072682;28;20214;-80
2023/10/04 03:09:47;;;;;;;6.37;1.57;;;;;;;11.70;68.30;101441.09;21063630;28;20237;-81
2023/10/04 03:19:51;;;;;;;6.27;1.50;;;;;;;11.64;68.50;101442.34;21066923;28;20236;-79
2023/10/04 03:29:57;;;;;;;5.10;1.13;;;;;;;11.50;69.33;101437.47;21060655;28;20194;-80
2023/10/04 03:40:00;;;;;;;6.23;1.73;;;;;;;11.71;68.33;101442.78;21080210;28;20218;-81
2023/10/04 03:50:06;;;;;;;7.40;1.80;;;;;;;12.18;67.20;101442.44;21071672;28;20229;-81
2023/10/04 04:00:11;;;;;;;5.27;1.53;;;;;;;11.82;68.09;101455.56;21065139;28;20222;-82
2023/10/04 04:10:16;;;;;;;8.25;1.60;;;;;;;11.94;67.77;101453.09;21069646;28;20251;-80
2023/10/04 04:20:23;;;;;;;4.90;1.53;;;;;;;12.02;67.90;101443.06;21062107;28;20223;-87
2023/10/04 04:30:31;;;;;;;4.82;1.30;;;;;;;11.59;69.93;101456.53;21059276;28;20199;-89
2023/10/04 04:40:32;;;;;;;7.97;1.80;;;;;;;11.83;68.79;101463.69;21053983;28;20218;-88
2023/10/04 04:50:36;;;;;;;5.97;1.48;;;;;;;11.69;69.08;101454.41;21057773;28;20271;-88
2023/10/04 05:00:42;;;;;;;4.70;1.40;;;;;;;11.57;69.19;101460.47;21065764;28;20214;-88
2023/10/04 05:10:48;;;;;;;5.27;1.87;;;;;;;11.52;69.86;101452.09;21053899;28;20205;-88
2023/10/04 05:20:53;;;;;;;4.13;1.95;;;;;;;11.95;67.43;101466.03;21058403;28;20246;-89
2023/10/04 05:30:57;;;;;;;21.08;1.98;;;;;;;11.25;69.96;101468.06;21062955;28;20465;-88
2023/10/04 05:41:00;;;;;;;8.87;2.60;;;;;;;11.19;71.36;101470.94;21065461;28;20225;-88
2023/10/04 05:51:06;;;;;;;7.97;2.03;;;;;;;11.66;69.47;101468.25;21057134;28;20538;-84
2023/10/04 06:01:09;;;;;;;6.07;2.40;;;;;;;11.36;70.84;101470.41;21047926;28;20225;-89
2023/10/04 06:11:12;;;;;;;8.67;2.83;;;;;;;11.22;70.69;101492.06;21065054;28;20620;-89
2023/10/04 06:21:16;;;;;;;9.00;2.40;;;;;;;10.75;72.06;101522.03;21051980;28;20274;-87
2023/10/04 06:31:19;;;;;;;8.70;2.83;;;;;;;11.32;70.86;101528.53;21057752;28;20207;-90
2023/10/04 06:41:24;;;;;;;6.90;2.53;;;;;;;11.28;70.91;101535.94;21059406;28;20223;-86
2023/10/04 06:51:27;;;;;;;10.17;2.53;;;;;;;11.55;70.22;101558.63;21039437;28;20650;-80
2023/10/04 07:01:28;;;;;;;11.33;2.73;;;;;;;11.55;70.80;101563.44;21048692;28;20604;-81
2023/10/04 07:11:32;;;;;;;7.07;2.40;;;;;;;11.31;70.94;101577.56;21039539;28;20206;-82
2023/10/04 07:21:34;;;;;;;7.88;2.70;;;;;;;11.17;71.85;101590.75;21073958;28;20314;-80
2023/10/04 07:31:38;;;;;;;7.80;2.83;;;;;;;11.95;68.55;101590.16;21069243;28;20229;-81
2023/10/04 07:41:40;;;;;;;8.30;2.63;;;;;;;12.04;69.56;101599.59;21079303;28;20267;-81
2023/10/04 07:51:44;;;;;;;12.82;3.35;;;;;;;11.98;68.96;101612.09;21074454;28;20287;-82
2023/10/04 08:01:46;;;;;;;9.77;2.85;;;;;;;12.30;67.72;101607.59;21081290;28;20247;-81
2023/10/04 08:11:51;;;;;;;8.17;2.70;;;;;;;12.26;67.60;101618.66;21050790;28;20199;-81
2023/10/04 08:21:54;;;;;;;9.87;3.00;;;;;;;12.82;65.64;101615.66;21040610;28;20511;-82
2023/10/04 08:31:57;;;;;;;7.00;2.67;;;;;;;13.31;64.77;101611.25;21063488;28;20202;-84
2023/10/04 08:41:59;;;;;;;9.57;2.92;;;;;;;13.65;62.73;101605.09;21032373;28;20219;-81
2023/10/04 08:52:08;;;;;;;8.20;2.53;;;;;;;13.44;63.22;101610.41;21058492;28;20325;-82
2023/10/04 09:02:12;;;;;;;7.15;2.33;;;;;;;13.75;63.76;101604.06;21059683;28;20217;-82
2023/10/04 09:12:17;;;;;;;11.75;2.75;;;;;;;13.28;63.14;101617.53;21057673;28;20655;-87
2023/10/04 09:22:31;;;;;;;13.18;5.13;;;;;;;13.65;62.41;101614.44;21055742;28;20283;-86
2023/10/04 09:32:39;;;;;;;7.05;2.72;;;;;;;13.45;63.07;101617.75;21060069;28;20293;-89
2023/10/04 09:42:49;;;;;;;6.82;2.22;;;;;;;13.84;62.59;101619.94;21057442;28;20273;-88
2023/10/04 09:52:52;;;;;;;10.50;2.55;;;;;;;14.13;61.27;101613.84;21057435;28;20221;-88
2023/10/04 10:02:54;;;;;;;12.30;2.55;;;;;;;14.38;60.80;101609.53;21069979;28;20282;-89
2023/10/04 10:12:59;;;;;;;8.18;2.97;;;;;;;13.64;61.40;101621.25;21061865;28;20195;-84
2023/10/04 10:23:13;;;;;;;7.13;2.35;;;;;;;14.55;58.74;101606.78;21056800;28;20305;-82
2023/10/04 10:33:22;;;;;;;8.95;2.15;;;;;;;14.13;60.58;101616.69;21068760;28;20696;-82
2023/10/04 10:43:24;;;;;;;7.50;2.10;;;;;;;14.21;59.64;101610.25;21071408;28;20632;-82
2023/10/04 10:53:27;;;;;;;7.35;1.77;;;;;;;13.84;58.88;101607.78;21046848;28;20231;-80
2023/10/04 11:03:28;;;;;;;9.80;2.25;;;;;;;14.66;55.78;101590.38;21089100;28;20215;-87
2023/10/04 11:13:33;;;;;;;4.93;1.92;;;;;;;15.07;54.32;101593.69;21075390;28;20495;-82
2023/10/04 11:23:37;;;;;;;11.13;2.47;;;;;;;15.01;54.06;101606.38;21069788;28;20222;-82
2023/10/04 11:33:55;;;;;;;4.88;2.10;;;;;;;14.36;54.40;101601.38;21055087;28;20613;-82
2023/10/04 11:44:03;;;;;;;4.53;2.10;;;;;;;14.93;51.51;101584.47;21083632;28;20214;-82
2023/10/04 11:54:07;;;;;;;8.02;2.08;;;;;;;15.51;49.64;101569.09;21071108;28;20229;-82
2023/10/04 12:04:09;;;;;;;5.32;1.70;;;;;;;15.38;51.05;101551.06;21061370;28;20214;-81
2023/10/04 12:14:12;;;;;;;6.68;2.40;;;;;;;15.06;51.72;101538.19;21069858;28;20206;-81
2023/10/04 12:24:15;;;;;;;5.68;1.80;;;;;;;15.93;47.40;101532.56;21056726;28;20250;-81
2023/10/04 12:34:18;;;;;;;5.15;1.40;;;;;;;15.40;48.23;101551.56;21069118;28;20473;-81
2023/10/04 12:44:20;;;;;;;3.70;1.45;;;;;;;15.51;47.48;101523.72;21029202;28;20465;-83
2023/10/04 12:54:25;;;;;;;7.88;3.10;;;;;;;14.65;49.88;101532.03;21017749;28;20246;-86
2023/10/04 13:04:27;;;;;;;5.53;2.17;;;;;;;15.11;51.42;101528.69;21057365;28;20230;-81
2023/10/04 13:14:30;;;;;;;8.32;2.28;;;;;;;15.73;48.17;101525.53;21064719;28;20317;-80
2023/10/04 13:24:32;;;;;;;5.35;2.50;;;;;;;15.23;47.86;101511.00;21057958;28;20278;-84
2023/10/04 13:34:35;;;;;;;5.57;2.30;;;;;;;15.62;47.06;101516.53;21069026;28;20286;-80
2023/10/04 13:44:37;;;;;;;6.93;2.78;;;;;;;14.81;48.67;101513.41;21058187;28;20510;-83
2023/10/04 13:54:43;;;;;;;9.02;2.95;;;;;;;15.60;46.73;101504.66;21085006;28;20329;-81
2023/10/04 14:04:45;;;;;;;13.52;3.55;;;;;;;15.94;46.19;101503.00;21054356;28;20222;-81
2023/10/04 14:14:51;;;;;;;6.55;2.47;;;;;;;15.10;48.09;101493.81;21067213;28;20320;-84
2023/10/04 14:24:52;;;;;;;6.35;2.55;;;;;;;14.55;48.94;101504.00;21063687;28;20242;-82
2023/10/04 14:34:56;;;;;;;6.68;2.58;;;;;;;15.33;48.25;101494.50;21077229;28;20590;-83
2023/10/04 14:44:58;;;;;;;7.57;2.90;;;;;;;15.28;47.95;101483.34;21084454;28;20677;-81
2023/10/04 14:55:06;;;;;;;7.97;3.00;;;;;;;14.83;48.74;101477.06;21063822;28;20596;-80
2023/10/04 15:05:10;;;;;;;9.15;2.83;;;;;;;14.54;49.50;101472.00;21076519;28;20218;-81
2023/10/04 15:15:13;;;;;;;8.15;3.05;;;;;;;14.88;49.13;101462.75;21068880;28;20240;-85
2023/10/04 15:25:15;;;;;;;5.10;2.65;;;;;;;14.45;50.54;101453.28;21092271;28;20222;-90
2023/10/04 15:35:24;;;;;;;6.15;2.53;;;;;;;14.42;49.79;101459.63;21105986;28;20219;-89
2023/10/04 15:45:28;;;;;;;8.25;2.65;;;;;;;14.56;50.83;101455.50;21106935;28;20218;-81
2023/10/04 15:55:32;;;;;;;10.13;2.80;;;;;;;15.36;49.34;101434.28;21077833;28;20522;-84
2023/10/04 16:05:36;;;;;;;7.40;2.83;;;;;;;14.87;50.13;101437.56;21072143;28;20214;-81
2023/10/04 16:15:40;;;;;;;8.18;2.83;;;;;;;15.00;50.39;101431.78;21080980;28;20194;-83
2023/10/04 16:25:42;;;;;;;9.83;3.47;;;;;;;15.42;49.69;101437.78;21078903;28;20637;-83
2023/10/04 16:35:45;;;;;;;8.15;2.80;;;;;;;14.82;51.56;101435.72;21071775;28;20189;-81
2023/10/04 16:45:50;;;;;;;7.32;2.70;;;;;;;15.00;51.55;101431.78;21070770;28;20218;-79
2023/10/04 16:55:54;;;;;;;7.27;2.43;;;;;;;15.13;51.36;101434.78;21079944;28;20316;-81
2023/10/04 17:05:55;;;;;;;6.95;2.53;;;;;;;15.19;51.17;101424.97;21076164;28;20301;-80
2023/10/04 17:15:58;;;;;;;9.07;2.60;;;;;;;14.53;53.20;101441.19;21064369;28;20210;-80
2023/10/04 17:26:00;;;;;;;6.22;2.47;;;;;;;14.57;53.29;101431.66;21048308;28;20750;-91
2023/10/04 17:36:05;;;;;;;9.60;3.03;;;;;;;14.34;54.42;101430.13;21078764;28;20198;-80
2023/10/04 17:46:07;;;;;;;7.10;2.37;;;;;;;14.14;55.47;101430.69;21043027;28;20513;-80
2023/10/04 17:56:10;;;;;;;7.05;2.33;;;;;;;14.04;56.07;101438.28;21074598;28;20239;-88
2023/10/04 18:06:12;;;;;;;9.52;2.20;;;;;;;14.18;55.91;101446.66;21046873;28;20637;-85
2023/10/04 18:16:15;;;;;;;10.80;2.92;;;;;;;14.08;56.24;101443.28;21058249;28;20190;-81
2023/10/04 18:26:17;;;;;;;7.68;2.10;;;;;;;14.17;55.61;101459.16;21065667;28;20224;-79
2023/10/04 18:36:20;;;;;;;4.65;2.20;;;;;;;13.93;56.72;101458.69;21064487;28;20191;-80
2023/10/04 18:46:22;;;;;;;8.52;2.20;;;;;;;13.68;57.17;101451.72;21058948;28;20523;-81
2023/10/04 18:56:27;;;;;;;7.95;1.90;;;;;;;13.90;56.78;101454.50;21056170;28;20534;-82
2023/10/04 19:06:30;;;;;;;9.25;2.33;;;;;;;13.96;56.78;101449.56;21054962;28;20272;-81
2023/10/04 19:16:33;;;;;;;5.38;2.40;;;;;;;14.42;55.80;101431.31;21058114;28;20195;-92
2023/10/04 19:26:36;;;;;;;9.90;2.40;;;;;;;14.03;57.31;101413.16;21065948;28;20507;-85
2023/10/04 19:36:39;;;;;;;8.40;2.83;;;;;;;13.63;58.13;101413.13;21102292;28;20199;-81
2023/10/04 19:46:40;;;;;;;6.43;1.90;;;;;;;13.93;57.47;101402.94;21055929;28;20218;-87
2023/10/04 19:56:44;;;;;;;7.85;2.38;;;;;;;13.94;57.41;101404.59;21072441;28;20222;-83
2023/10/04 20:06:46;;;;;;;8.48;2.35;;;;;;;13.97;57.32;101387.00;21062969;28;20222;-80
2023/10/04 20:16:49;;;;;;;8.95;2.72;;;;;;;13.65;58.45;101367.50;21061094;28;20494;-78
2023/10/04 20:26:51;;;;;;;9.85;2.65;;;;;;;13.87;57.99;101373.13;21063582;28;20211;-80
2023/10/04 20:36:54;;;;;;;8.93;2.55;;;;;;;14.45;56.81;101366.34;21060108;28;20199;-84
2023/10/04 20:46:56;;;;;;;7.63;2.83;;;;;;;14.20;57.43;101373.59;21056600;28;20813;-79
2023/10/04 20:57:00;;;;;;;6.60;3.33;;;;;;;14.24;57.22;101357.63;21077223;28;20309;-80
2023/10/04 21:07:02;;;;;;;12.88;3.33;;;;;;;13.89;58.41;101365.16;21072301;28;20264;-84
2023/10/04 21:17:06;;;;;;;9.95;3.30;;;;;;;13.84;58.76;101347.47;21079418;28;20209;-79
2023/10/04 21:27:08;;;;;;;9.30;3.03;;;;;;;14.20;57.81;101345.28;21063333;28;20249;-81
2023/10/04 21:37:11;;;;;;;7.93;3.20;;;;;;;13.52;59.64;101318.38;21056939;28;20199;-80
2023/10/04 21:47:26;;;;;;;9.27;2.90;;;;;;;13.87;58.37;101325.03;21078980;28;20222;-88
2023/10/04 21:57:29;;;;;;;8.40;3.30;;;;;;;13.52;60.13;101321.19;21051233;28;20517;-80
2023/10/04 22:07:35;;;;;;;5.78;2.53;;;;;;;13.56;59.15;101316.56;21059124;28;20222;-80
2023/10/04 22:17:38;;;;;;;8.27;2.50;;;;;;;13.75;58.76;101312.66;21069395;28;20579;-80
2023/10/04 22:27:40;;;;;;;8.35;2.58;;;;;;;13.34;59.58;101308.13;21073286;28;20226;-79
2023/10/04 22:37:44;;;;;;;6.10;2.70;;;;;;;12.89;60.89;101308.16;21062833;28;20198;-80
2023/10/04 22:47:46;;;;;;;11.00;2.75;;;;;;;13.05;59.75;101296.47;21062490;28;20301;-80
2023/10/04 22:57:49;;;;;;;9.70;2.55;;;;;;;13.04;59.49;101283.47;21091766;28;20312;-80
2023/10/04 23:07:51;;;;;;;9.03;3.50;;;;;;;12.98;59.81;101268.66;21073775;28;20238;-81
2023/10/04 23:17:55;;;;;;;6.90;2.47;;;;;;;13.24;58.77;101271.66;21064995;28;20205;-80
2023/10/04 23:27:58;;;;;;;5.80;2.07;;;;;;;13.40;58.03;101255.94;21067032;28;20229;-80
2023/10/04 23:38:13;;;;;;;7.03;2.60;;;;;;;12.61;61.15;101250.09;21070425;28;20582;-86
2023/10/04 23:48:23;;;;;;;10.70;2.40;;;;;;;13.12;59.40;101251.63;21076132;28;20586;-84
2023/10/04 23:58:26;;;;;;;9.43;2.90;;;;;;;12.63;60.75;101239.34;21062535;28;20225;-88
